createdAt,value
2019-04-07T00:00:27.762Z,34.00
2019-04-07T00:02:56.847Z,33.90
2019-04-07T00:05:25.645Z,29.53
2019-04-07T00:07:56.070Z,28.10
2019-04-07T00:10:25.951Z,27.10
2019-04-07T00:12:54.795Z,29.33
2019-04-07T00:15:23.478Z,31.30
2019-04-07T00:17:52.043Z,29.43
2019-04-07T00:20:20.862Z,31.93
2019-04-07T00:22:49.919Z,33.53
2019-04-07T00:25:19.287Z,35.60
2019-04-07T00:27:47.793Z,31.30
2019-04-07T00:30:16.900Z,34.23
2019-04-07T00:32:46.653Z,26.77
2019-04-07T00:35:23.411Z,31.60
2019-04-07T00:37:46.096Z,28.87
2019-04-07T00:40:15.493Z,33.00
2019-04-07T00:42:44.407Z,31.97
2019-04-07T00:45:14.095Z,32.40
2019-04-07T00:47:43.021Z,33.63
2019-04-07T00:50:12.098Z,33.50
2019-04-07T00:52:40.775Z,31.63
2019-04-07T00:55:09.924Z,34.03
2019-04-07T00:57:38.474Z,35.27
2019-04-07T01:00:10.593Z,33.10
2019-04-07T01:02:39.841Z,31.00
2019-04-07T01:05:08.613Z,33.47
2019-04-07T01:07:37.131Z,32.10
2019-04-07T01:10:07.219Z,32.23
2019-04-07T01:12:35.841Z,34.10
2019-04-07T01:15:07.740Z,35.67
2019-04-07T01:17:37.003Z,37.10
2019-04-07T01:20:08.882Z,34.70
2019-04-07T01:22:37.441Z,34.63
2019-04-07T01:25:07.142Z,33.30
2019-04-07T01:27:35.832Z,36.93
2019-04-07T01:30:06.262Z,32.90
2019-04-07T01:32:35.601Z,35.70
2019-04-07T01:35:04.996Z,33.83
2019-04-07T01:37:34.060Z,35.07
2019-04-07T01:40:03.133Z,32.07
2019-04-07T01:42:49.971Z,33.03
2019-04-07T01:45:23.698Z,37.23
2019-04-07T01:48:10.312Z,34.83
2019-04-07T01:50:55.185Z,38.03
2019-04-07T01:53:28.246Z,32.50
2019-04-07T01:56:01.816Z,35.90
2019-04-07T01:58:35.428Z,36.77
2019-04-07T02:01:18.324Z,37.53
2019-04-07T02:03:49.528Z,37.73
2019-04-07T02:06:25.705Z,32.60
2019-04-07T02:08:58.865Z,39.87
2019-04-07T02:11:32.573Z,29.07
2019-04-07T02:14:21.286Z,36.90
2019-04-07T02:16:51.561Z,34.57
2019-04-07T02:19:30.768Z,30.50
2019-04-07T02:22:04.640Z,30.97
2019-04-07T02:24:34.737Z,34.63
2019-04-07T02:27:21.917Z,38.93
2019-04-07T02:30:07.837Z,34.70
2019-04-07T02:32:47.074Z,37.60
2019-04-07T02:35:17.144Z,30.93
2019-04-07T02:37:48.161Z,35.93
2019-04-07T02:40:28.447Z,33.37
2019-04-07T02:43:05.233Z,35.37
2019-04-07T02:45:50.751Z,31.10
2019-04-07T02:48:39.522Z,37.20
2019-04-07T02:51:11.478Z,34.20
2019-04-07T02:53:41.540Z,35.47
2019-04-07T02:56:11.845Z,33.27
2019-04-07T02:58:59.399Z,33.20
2019-04-07T03:01:33.014Z,35.33
2019-04-07T03:04:20.446Z,39.23
2019-04-07T03:07:00.563Z,40.90
2019-04-07T03:09:36.755Z,32.77
2019-04-07T03:12:10.395Z,31.67
2019-04-07T03:14:41.291Z,34.10
2019-04-07T03:17:14.025Z,35.23
2019-04-07T03:19:56.225Z,30.70
2019-04-07T03:22:43.761Z,31.97
2019-04-07T03:25:15.619Z,32.33
2019-04-07T03:27:52.715Z,35.30
2019-04-07T03:30:29.968Z,32.27
2019-04-07T03:33:02.800Z,34.50
2019-04-07T03:35:53.150Z,31.20
2019-04-07T03:38:22.579Z,31.37
2019-04-07T03:40:52.637Z,29.33
2019-04-07T03:43:23.761Z,28.40
2019-04-07T03:45:55.001Z,31.30
2019-04-07T03:48:37.999Z,31.13
2019-04-07T03:51:20.394Z,31.80
2019-04-07T03:53:54.070Z,33.60
2019-04-07T03:56:25.405Z,31.67
2019-04-07T03:59:01.100Z,29.60
2019-04-07T04:01:35.421Z,32.77
2019-04-07T04:04:07.714Z,31.17
2019-04-07T04:06:47.021Z,28.03
2019-04-07T04:09:17.603Z,28.30
2019-04-07T04:11:47.827Z,27.77
2019-04-07T04:14:26.783Z,28.10
2019-04-07T04:16:56.176Z,28.97
2019-04-07T04:19:26.156Z,27.33
2019-04-07T04:21:55.621Z,26.30
2019-04-07T04:24:24.073Z,26.20
2019-04-07T04:26:53.641Z,28.63
2019-04-07T04:29:23.369Z,27.03
2019-04-07T04:31:53.075Z,25.47
2019-04-07T04:34:21.502Z,25.37
2019-04-07T04:36:50.272Z,25.90
2019-04-07T04:39:20.961Z,24.37
2019-04-07T04:41:49.255Z,25.27
2019-04-07T04:44:18.642Z,24.40
2019-04-07T04:46:48.559Z,25.63
2019-04-07T04:49:17.138Z,28.17
2019-04-07T04:51:45.862Z,24.80
2019-04-07T04:54:14.523Z,29.93
2019-04-07T04:56:44.892Z,25.53
2019-04-07T04:59:13.658Z,25.50
2019-04-07T05:01:42.270Z,27.60
2019-04-07T05:04:11.490Z,31.87
2019-04-07T05:06:41.300Z,26.47
2019-04-07T05:09:09.873Z,24.40
2019-04-07T05:11:38.654Z,26.63
2019-04-07T05:14:07.179Z,25.73
2019-04-07T05:16:35.662Z,27.53
2019-04-07T05:19:04.482Z,24.40
2019-04-07T05:21:33.918Z,25.00
2019-04-07T05:24:02.818Z,27.50
2019-04-07T05:26:31.254Z,30.60
2019-04-07T05:29:00.430Z,23.03
2019-04-07T05:31:30.462Z,23.40
2019-04-07T05:34:00.270Z,27.93
2019-04-07T05:36:28.884Z,22.30
2019-04-07T05:38:57.483Z,25.43
2019-04-07T05:41:26.310Z,22.77
2019-04-07T05:43:55.662Z,26.77
2019-04-07T05:46:24.997Z,25.03
2019-04-07T05:48:53.558Z,26.27
2019-04-07T05:51:22.886Z,25.33
2019-04-07T05:53:52.656Z,21.83
2019-04-07T05:56:25.973Z,24.80
2019-04-07T05:58:52.746Z,22.70
2019-04-07T06:01:23.677Z,22.10
2019-04-07T06:03:52.235Z,24.27
2019-04-07T06:06:21.522Z,19.03
2019-04-07T06:08:50.641Z,23.03
2019-04-07T06:11:19.511Z,22.90
2019-04-07T06:13:48.723Z,22.63
2019-04-07T06:16:19.951Z,18.30
2019-04-07T06:18:48.223Z,22.50
2019-04-07T06:21:17.356Z,20.90
2019-04-07T06:23:46.117Z,22.13
2019-04-07T06:26:15.088Z,22.47
2019-04-07T06:28:46.680Z,18.20
2019-04-07T06:31:14.146Z,20.03
2019-04-07T06:33:42.992Z,20.40
2019-04-07T06:36:11.606Z,23.07
2019-04-07T06:38:43.634Z,18.20
2019-04-07T06:41:11.437Z,21.80
2019-04-07T06:43:40.429Z,18.37
2019-04-07T06:46:24.625Z,19.30
2019-04-07T06:48:55.121Z,18.57
2019-04-07T06:51:29.186Z,16.83
2019-04-07T06:54:18.547Z,21.47
2019-04-07T06:57:04.345Z,18.80
2019-04-07T06:59:33.991Z,17.17
2019-04-07T07:02:12.086Z,18.87
2019-04-07T07:04:48.619Z,20.37
2019-04-07T07:07:25.326Z,19.03
2019-04-07T07:10:06.328Z,16.50
2019-04-07T07:12:39.133Z,17.60
2019-04-07T07:15:09.138Z,16.17
2019-04-07T07:17:52.668Z,14.63
2019-04-07T07:20:32.789Z,18.03
2019-04-07T07:23:05.958Z,15.80
2019-04-07T07:25:34.910Z,16.40
2019-04-07T07:28:04.331Z,15.53
2019-04-07T07:30:32.955Z,14.00
2019-04-07T07:33:01.954Z,15.37
2019-04-07T07:35:30.505Z,15.70
2019-04-07T07:37:59.757Z,15.97
2019-04-07T07:40:28.656Z,18.87
2019-04-07T07:42:59.137Z,15.57
2019-04-07T07:45:28.338Z,17.37
2019-04-07T07:47:56.769Z,15.03
2019-04-07T07:50:26.608Z,16.93
2019-04-07T07:52:56.079Z,14.87
2019-04-07T07:55:25.283Z,15.23
2019-04-07T07:57:56.461Z,13.67
2019-04-07T08:00:26.571Z,14.43
2019-04-07T08:02:55.831Z,15.23
2019-04-07T08:05:29.905Z,16.00
2019-04-07T08:07:56.145Z,12.10
2019-04-07T08:10:26.639Z,11.50
2019-04-07T08:12:56.308Z,10.13
2019-04-07T08:15:29.678Z,13.80
2019-04-07T08:17:55.192Z,12.90
2019-04-07T08:20:24.227Z,12.33
2019-04-07T08:22:53.063Z,10.13
2019-04-07T08:25:23.687Z,10.63
2019-04-07T08:27:51.691Z,12.10
2019-04-07T08:30:20.262Z,10.00
2019-04-07T08:32:48.841Z,10.90
2019-04-07T08:35:17.663Z,10.17
2019-04-07T08:37:48.161Z,10.67
2019-04-07T08:40:16.694Z,10.87
2019-04-07T08:42:48.269Z,11.00
2019-04-07T08:45:15.587Z,10.43
2019-04-07T08:47:47.340Z,12.37
2019-04-07T08:50:15.175Z,10.63
2019-04-07T08:52:43.917Z,10.30
2019-04-07T08:55:12.904Z,11.00
2019-04-07T08:57:42.319Z,10.67
2019-04-07T09:00:14.936Z,12.33
2019-04-07T09:02:43.814Z,9.70
2019-04-07T09:05:12.952Z,9.63
2019-04-07T09:07:42.610Z,10.57
2019-04-07T09:10:17.043Z,10.63
2019-04-07T09:12:44.069Z,7.87
2019-04-07T09:15:14.288Z,10.67
2019-04-07T09:17:48.713Z,11.73
2019-04-07T09:20:20.023Z,9.10
2019-04-07T09:22:59.374Z,8.37
2019-04-07T09:25:31.837Z,8.70
2019-04-07T09:28:04.126Z,8.53
2019-04-07T09:30:40.044Z,8.23
2019-04-07T09:33:11.449Z,8.53
2019-04-07T09:35:44.328Z,10.00
2019-04-07T09:38:15.299Z,7.87
2019-04-07T09:41:01.671Z,8.27
2019-04-07T09:43:49.427Z,11.37
2019-04-07T09:46:33.250Z,8.37
2019-04-07T09:49:05.956Z,8.23
2019-04-07T09:51:41.344Z,8.37
2019-04-07T09:54:11.108Z,6.80
2019-04-07T09:56:45.048Z,7.80
2019-04-07T09:59:30.696Z,7.50
2019-04-07T10:02:14.545Z,7.20
2019-04-07T10:04:45.151Z,6.70
2019-04-07T10:07:34.861Z,7.87
2019-04-07T10:10:14.364Z,8.83
2019-04-07T10:12:43.570Z,7.50
2019-04-07T10:15:16.652Z,6.63
2019-04-07T10:17:47.088Z,6.07
2019-04-07T10:20:32.601Z,7.77
2019-04-07T10:23:03.048Z,7.53
2019-04-07T10:25:33.432Z,7.27
2019-04-07T10:28:19.904Z,8.23
2019-04-07T10:30:50.019Z,8.70
2019-04-07T10:33:23.745Z,9.17
2019-04-07T10:36:12.050Z,9.70
2019-04-07T10:38:58.664Z,8.37
2019-04-07T10:41:45.389Z,7.63
2019-04-07T10:44:19.374Z,8.73
2019-04-07T10:46:50.429Z,9.83
2019-04-07T10:49:21.369Z,10.20
2019-04-07T10:51:52.276Z,9.03
2019-04-07T10:54:38.198Z,8.17
2019-04-07T10:57:18.818Z,8.77
2019-04-07T11:00:05.802Z,7.70
2019-04-07T11:02:54.867Z,8.67
2019-04-07T11:05:37.070Z,7.53
2019-04-07T11:08:10.529Z,8.47
2019-04-07T11:10:44.199Z,11.60
2019-04-07T11:13:18.503Z,7.90
2019-04-07T11:15:49.785Z,8.50
2019-04-07T11:18:23.054Z,9.43
2019-04-07T11:20:54.443Z,6.57
2019-04-07T11:23:31.992Z,9.70
2019-04-07T11:26:02.644Z,6.40
2019-04-07T11:28:33.790Z,6.97
2019-04-07T11:31:04.323Z,6.63
2019-04-07T11:33:35.072Z,7.50
2019-04-07T11:36:24.487Z,9.30
2019-04-07T11:38:55.928Z,7.90
2019-04-07T11:41:28.873Z,6.83
2019-04-07T11:44:00.681Z,8.00
2019-04-07T11:46:30.805Z,5.90
2019-04-07T11:49:02.684Z,7.37
2019-04-07T11:51:42.463Z,6.30
2019-04-07T11:54:14.278Z,6.10
2019-04-07T11:56:47.698Z,5.40
2019-04-07T11:59:23.822Z,5.60
2019-04-07T12:02:04.570Z,5.43
2019-04-07T12:04:51.761Z,6.17
2019-04-07T12:07:25.336Z,5.30
2019-04-07T12:09:56.317Z,4.40
2019-04-07T12:12:27.118Z,3.43
2019-04-07T12:14:57.808Z,5.63
2019-04-07T12:17:28.753Z,5.00
2019-04-07T12:19:59.175Z,6.20
2019-04-07T12:22:47.994Z,3.00
2019-04-07T12:25:17.737Z,3.50
2019-04-07T12:28:05.396Z,3.33
2019-04-07T12:30:51.274Z,3.20
2019-04-07T12:33:23.203Z,3.60
2019-04-07T12:36:00.869Z,3.83
2019-04-07T12:38:43.257Z,3.10
2019-04-07T12:41:19.099Z,2.70
2019-04-07T12:44:01.651Z,4.63
2019-04-07T12:46:34.974Z,3.90
2019-04-07T12:49:07.750Z,2.67
2019-04-07T12:51:37.492Z,3.67
2019-04-07T12:54:12.210Z,4.73
2019-04-07T12:56:52.391Z,3.43
2019-04-07T12:59:39.224Z,2.43
2019-04-07T13:02:10.126Z,2.50
2019-04-07T13:04:41.789Z,1.87
2019-04-07T13:07:17.076Z,2.57
2019-04-07T13:09:56.318Z,3.03
2019-04-07T13:12:30.466Z,4.10
2019-04-07T13:15:19.467Z,2.50
2019-04-07T13:18:08.560Z,2.10
2019-04-07T13:20:40.772Z,2.70
2019-04-07T13:23:12.384Z,2.30
2019-04-07T13:25:43.543Z,2.20
2019-04-07T13:28:15.246Z,2.33
2019-04-07T13:30:59.053Z,2.50
2019-04-07T13:33:39.471Z,2.13
2019-04-07T13:36:10.640Z,2.23
2019-04-07T13:38:44.916Z,2.20
2019-04-07T13:41:20.382Z,2.50
2019-04-07T13:44:07.113Z,2.70
2019-04-07T13:46:37.957Z,2.07
2019-04-07T13:49:18.095Z,2.00
2019-04-07T13:51:49.341Z,2.53
2019-04-07T13:54:25.296Z,3.20
2019-04-07T13:56:56.414Z,3.30
2019-04-07T13:59:45.269Z,2.83
2019-04-07T14:02:17.433Z,3.57
2019-04-07T14:04:48.903Z,3.07
2019-04-07T14:07:27.411Z,3.40
2019-04-07T14:10:03.077Z,4.30
2019-04-07T14:12:34.510Z,2.60
2019-04-07T14:15:09.210Z,3.90
2019-04-07T14:17:50.368Z,3.23
2019-04-07T14:20:37.527Z,2.37
2019-04-07T14:23:24.173Z,3.10
2019-04-07T14:26:08.011Z,1.80
2019-04-07T14:28:40.124Z,2.47
2019-04-07T14:31:20.768Z,2.40
2019-04-07T14:33:58.861Z,2.30
2019-04-07T14:36:32.807Z,1.83
2019-04-07T14:39:12.907Z,1.60
2019-04-07T14:41:43.809Z,2.50
2019-04-07T14:44:18.268Z,2.33
2019-04-07T14:46:50.105Z,2.47
2019-04-07T14:49:22.807Z,2.30
2019-04-07T14:52:03.713Z,2.47
2019-04-07T14:54:40.839Z,2.57
2019-04-07T14:57:12.717Z,2.53
2019-04-07T14:59:56.169Z,2.33
2019-04-07T15:02:25.518Z,4.47
2019-04-07T15:05:04.106Z,2.70
2019-04-07T15:07:47.188Z,2.20
2019-04-07T15:10:20.142Z,3.03
2019-04-07T15:12:51.289Z,2.47
2019-04-07T15:15:21.459Z,2.23
2019-04-07T15:17:51.210Z,2.47
2019-04-07T15:20:20.418Z,1.97
2019-04-07T15:22:49.879Z,2.37
2019-04-07T15:25:19.493Z,2.50
2019-04-07T15:27:48.975Z,2.53
2019-04-07T15:30:20.187Z,2.03
2019-04-07T15:32:50.386Z,2.13
2019-04-07T15:35:20.100Z,2.10
2019-04-07T15:37:51.562Z,1.80
2019-04-07T15:40:21.419Z,2.13
2019-04-07T15:42:51.223Z,1.97
2019-04-07T15:45:21.575Z,2.13
2019-04-07T15:47:53.830Z,1.60
2019-04-07T15:50:22.651Z,2.40
2019-04-07T15:52:52.706Z,2.57
2019-04-07T15:55:26.370Z,2.73
2019-04-07T15:57:57.097Z,2.73
2019-04-07T16:00:25.774Z,2.90
2019-04-07T16:02:55.496Z,3.03
2019-04-07T16:05:24.513Z,5.00
2019-04-07T16:07:55.425Z,2.50
2019-04-07T16:10:26.161Z,2.73
2019-04-07T16:12:59.019Z,2.53
2019-04-07T16:15:27.332Z,2.13
2019-04-07T16:17:56.907Z,2.50
2019-04-07T16:20:32.329Z,2.37
2019-04-07T16:22:59.617Z,2.30
2019-04-07T16:25:32.215Z,3.00
2019-04-07T16:28:03.508Z,2.63
2019-04-07T16:30:34.041Z,2.60
2019-04-07T16:33:05.581Z,2.60
2019-04-07T16:35:36.499Z,2.40
2019-04-07T16:38:05.990Z,2.10
2019-04-07T16:40:35.934Z,2.47
2019-04-07T16:43:13.371Z,1.90
2019-04-07T16:45:36.719Z,3.50
2019-04-07T16:48:08.058Z,2.57
2019-04-07T16:50:39.858Z,2.50
2019-04-07T16:53:09.500Z,3.77
2019-04-07T16:55:41.575Z,3.17
2019-04-07T16:58:14.257Z,3.97
2019-04-07T17:00:43.993Z,2.33
2019-04-07T17:03:15.309Z,2.30
2019-04-07T17:05:46.317Z,4.30
2019-04-07T17:08:19.356Z,2.90
2019-04-07T17:10:48.630Z,2.83
2019-04-07T17:13:24.797Z,2.67
2019-04-07T17:15:51.577Z,2.57
2019-04-07T17:18:38.876Z,3.07
2019-04-07T17:21:15.092Z,3.13
2019-04-07T17:23:44.265Z,3.10
2019-04-07T17:26:13.904Z,2.80
2019-04-07T17:28:45.168Z,2.93
2019-04-07T17:31:16.287Z,2.80
2019-04-07T17:33:46.933Z,3.03
2019-04-07T17:36:20.924Z,3.73
2019-04-07T17:39:09.616Z,2.47
2019-04-07T17:41:39.270Z,2.90
2019-04-07T17:44:18.030Z,2.87
2019-04-07T17:46:57.899Z,4.03
2019-04-07T17:49:34.658Z,3.90
2019-04-07T17:52:22.830Z,3.03
2019-04-07T17:55:10.617Z,2.80
2019-04-07T17:57:50.780Z,3.90
2019-04-07T18:00:30.162Z,6.63
2019-04-07T18:03:06.101Z,4.07
2019-04-07T18:05:40.678Z,3.00
2019-04-07T18:08:25.134Z,3.67
2019-04-07T18:11:02.351Z,3.10
2019-04-07T18:13:49.088Z,3.97
2019-04-07T18:16:30.672Z,4.67
2019-04-07T18:19:04.758Z,3.50
2019-04-07T18:21:52.411Z,3.40
2019-04-07T18:24:31.703Z,3.43
2019-04-07T18:27:03.133Z,3.33
2019-04-07T18:29:38.387Z,4.10
2019-04-07T18:32:13.185Z,4.20
2019-04-07T18:34:45.036Z,4.07
2019-04-07T18:37:18.851Z,4.70
2019-04-07T18:40:00.249Z,3.40
2019-04-07T18:42:45.560Z,4.10
2019-04-07T18:45:19.691Z,3.70
2019-04-07T18:47:58.071Z,4.10
2019-04-07T18:50:28.964Z,4.57
2019-04-07T18:53:12.445Z,4.67
2019-04-07T18:56:00.108Z,4.30
2019-04-07T18:58:36.812Z,4.83
2019-04-07T19:01:24.406Z,4.23
2019-04-07T19:04:02.479Z,5.30
2019-04-07T19:06:36.938Z,4.27
2019-04-07T19:09:14.194Z,8.67
2019-04-07T19:12:02.806Z,4.13
2019-04-07T19:14:40.226Z,3.73
2019-04-07T19:16:59.704Z,4.73
2019-04-07T19:19:49.237Z,4.07
2019-04-07T19:22:23.222Z,4.67
2019-04-07T19:24:54.736Z,7.73
2019-04-07T19:27:31.011Z,4.67
2019-04-07T19:30:07.353Z,4.87
2019-04-07T19:32:38.887Z,6.93
2019-04-07T19:35:11.516Z,5.23
2019-04-07T19:38:01.149Z,4.57
2019-04-07T19:40:51.068Z,4.77
2019-04-07T19:43:25.345Z,5.03
2019-04-07T19:46:09.240Z,5.10
2019-04-07T19:48:43.106Z,4.57
2019-04-07T19:51:22.488Z,5.30
2019-04-07T19:54:04.408Z,5.17
2019-04-07T19:56:35.792Z,5.20
2019-04-07T19:59:12.837Z,6.67
2019-04-07T20:02:02.248Z,5.43
2019-04-07T20:04:34.391Z,5.63
2019-04-07T20:07:13.733Z,6.50
2019-04-07T20:09:50.956Z,6.10
2019-04-07T20:12:22.354Z,7.40
2019-04-07T20:15:06.942Z,9.50
2019-04-07T20:17:43.993Z,7.53
2019-04-07T20:20:21.754Z,5.80
2019-04-07T20:23:02.196Z,7.00
2019-04-07T20:25:46.227Z,4.50
2019-04-07T20:28:15.324Z,7.67
2019-04-07T20:30:51.164Z,5.97
2019-04-07T20:33:38.646Z,6.37
2019-04-07T20:36:23.508Z,7.03
2019-04-07T20:38:52.090Z,6.73
2019-04-07T20:41:29.464Z,6.50
2019-04-07T20:44:18.868Z,8.50
2019-04-07T20:47:07.808Z,10.70
2019-04-07T20:49:47.774Z,24.17
2019-04-07T20:52:20.106Z,36.30
2019-04-07T20:54:51.768Z,14.87
2019-04-07T20:57:39.095Z,9.97
2019-04-07T21:00:26.512Z,8.70
2019-04-07T21:03:17.168Z,8.87
2019-04-07T21:05:44.168Z,9.80
2019-04-07T21:08:24.099Z,10.20
2019-04-07T21:11:01.496Z,10.67
2019-04-07T21:13:50.392Z,10.17
2019-04-07T21:16:33.847Z,11.73
2019-04-07T21:19:07.756Z,11.33
2019-04-07T21:21:49.890Z,11.63
2019-04-07T21:24:27.210Z,15.73
2019-04-07T21:27:16.377Z,14.93
2019-04-07T21:30:00.700Z,16.13
2019-04-07T21:32:31.591Z,15.73
2019-04-07T21:35:09.265Z,20.07
2019-04-07T21:37:40.870Z,19.57
2019-04-07T21:40:18.703Z,20.63
2019-04-07T21:43:02.661Z,16.53
2019-04-07T21:45:52.815Z,17.83
2019-04-07T21:48:30.648Z,21.00
2019-04-07T21:51:08.606Z,21.77
2019-04-07T21:54:02.224Z,21.83
2019-04-07T21:56:48.867Z,23.07
2019-04-07T21:59:26.617Z,22.53
2019-04-07T22:02:11.838Z,23.70
2019-04-07T22:04:56.647Z,22.37
2019-04-07T22:07:27.660Z,24.33
2019-04-07T22:10:03.178Z,21.70
2019-04-07T22:12:33.919Z,25.67
2019-04-07T22:15:04.499Z,22.80
2019-04-07T22:17:36.636Z,24.50
2019-04-07T22:20:08.355Z,28.60
2019-04-07T22:22:38.892Z,23.43
2019-04-07T22:25:09.760Z,22.13
2019-04-07T22:27:39.790Z,24.40
2019-04-07T22:30:11.728Z,26.17
2019-04-07T22:32:41.144Z,25.93
2019-04-07T22:35:11.432Z,26.30
2019-04-07T22:37:41.819Z,25.63
2019-04-07T22:40:15.155Z,28.30
2019-04-07T22:42:47.447Z,28.80
2019-04-07T22:45:16.642Z,21.20
2019-04-07T22:47:46.655Z,25.10
2019-04-07T22:50:17.026Z,24.10
2019-04-07T22:52:49.060Z,24.77
2019-04-07T22:55:18.395Z,29.47
2019-04-07T22:57:49.509Z,32.00
2019-04-07T23:00:21.314Z,28.43
2019-04-07T23:02:50.910Z,30.40
2019-04-07T23:05:21.024Z,23.93
2019-04-07T23:07:50.442Z,27.53
2019-04-07T23:10:20.066Z,29.57
2019-04-07T23:12:50.980Z,28.47
2019-04-07T23:15:20.769Z,26.07
2019-04-07T23:17:52.260Z,28.07
2019-04-07T23:20:23.562Z,27.67
2019-04-07T23:22:53.008Z,26.33
2019-04-07T23:25:23.013Z,24.73
2019-04-07T23:27:52.870Z,26.87
2019-04-07T23:30:24.368Z,27.77
2019-04-07T23:32:57.829Z,28.70
2019-04-07T23:35:28.762Z,32.23
2019-04-07T23:37:59.432Z,34.10
2019-04-07T23:40:29.931Z,36.80
2019-04-07T23:42:58.820Z,34.30
2019-04-07T23:45:29.031Z,31.97
2019-04-07T23:47:59.935Z,34.23
2019-04-07T23:50:30.384Z,34.50
2019-04-07T23:53:03.548Z,37.00
2019-04-07T23:55:32.841Z,38.00
2019-04-07T23:58:02.792Z,36.70
